sensor_id;sensor_type;location;lat;lon;timestamp;P1;durP1;ratioP1;P2;durP2;ratioP2
42616;SDS011;28250;52.320;0.360;2024-01-06T00:02:25;5.78;;;2.40;;
42616;SDS011;28250;52.320;0.360;2024-01-06T00:04:52;7.72;;;2.50;;
42616;SDS011;28250;52.320;0.360;2024-01-06T00:07:18;7.78;;;2.25;;
42616;SDS011;28250;52.320;0.360;2024-01-06T00:09:44;5.75;;;2.67;;
42616;SDS011;28250;52.320;0.360;2024-01-06T00:12:10;6.53;;;2.38;;
42616;SDS011;28250;52.320;0.360;2024-01-06T00:14:36;8.52;;;2.63;;
42616;SDS011;28250;52.320;0.360;2024-01-06T00:17:02;3.20;;;2.22;;
42616;SDS011;28250;52.320;0.360;2024-01-06T00:19:29;4.63;;;2.15;;
42616;SDS011;28250;52.320;0.360;2024-01-06T00:21:55;4.85;;;2.25;;
42616;SDS011;28250;52.320;0.360;2024-01-06T00:24:21;4.55;;;2.00;;
42616;SDS011;28250;52.320;0.360;2024-01-06T00:26:47;4.82;;;2.28;;
42616;SDS011;28250;52.320;0.360;2024-01-06T00:29:14;5.32;;;2.10;;
42616;SDS011;28250;52.320;0.360;2024-01-06T00:31:40;8.02;;;2.65;;
42616;SDS011;28250;52.320;0.360;2024-01-06T00:34:10;3.55;;;1.92;;
42616;SDS011;28250;52.320;0.360;2024-01-06T00:36:37;5.32;;;2.35;;
42616;SDS011;28250;52.320;0.360;2024-01-06T00:39:04;7.72;;;2.55;;
42616;SDS011;28250;52.320;0.360;2024-01-06T00:41:30;8.27;;;2.63;;
42616;SDS011;28250;52.320;0.360;2024-01-06T00:43:58;6.10;;;2.83;;
42616;SDS011;28250;52.320;0.360;2024-01-06T00:46:25;5.07;;;2.60;;
42616;SDS011;28250;52.320;0.360;2024-01-06T00:48:51;7.30;;;2.85;;
42616;SDS011;28250;52.320;0.360;2024-01-06T00:51:18;9.63;;;2.38;;
42616;SDS011;28250;52.320;0.360;2024-01-06T00:53:44;7.05;;;2.40;;
42616;SDS011;28250;52.320;0.360;2024-01-06T00:56:10;9.15;;;3.00;;
42616;SDS011;28250;52.320;0.360;2024-01-06T00:58:36;7.68;;;3.03;;
42616;SDS011;28250;52.320;0.360;2024-01-06T01:01:02;7.05;;;3.22;;
42616;SDS011;28250;52.320;0.360;2024-01-06T01:03:28;3.58;;;2.30;;
42616;SDS011;28250;52.320;0.360;2024-01-06T01:05:55;5.25;;;2.33;;
42616;SDS011;28250;52.320;0.360;2024-01-06T01:08:21;5.50;;;2.70;;
42616;SDS011;28250;52.320;0.360;2024-01-06T01:10:47;6.05;;;2.30;;
42616;SDS011;28250;52.320;0.360;2024-01-06T01:13:13;4.88;;;1.75;;
42616;SDS011;28250;52.320;0.360;2024-01-06T01:15:39;3.13;;;1.63;;
42616;SDS011;28250;52.320;0.360;2024-01-06T01:18:05;4.20;;;1.70;;
42616;SDS011;28250;52.320;0.360;2024-01-06T01:20:31;6.55;;;1.77;;
42616;SDS011;28250;52.320;0.360;2024-01-06T01:22:57;6.40;;;1.85;;
42616;SDS011;28250;52.320;0.360;2024-01-06T01:25:23;3.78;;;1.58;;
42616;SDS011;28250;52.320;0.360;2024-01-06T01:27:49;9.32;;;2.10;;
42616;SDS011;28250;52.320;0.360;2024-01-06T01:30:15;5.47;;;1.60;;
42616;SDS011;28250;52.320;0.360;2024-01-06T01:32:41;4.05;;;1.25;;
42616;SDS011;28250;52.320;0.360;2024-01-06T01:35:07;3.33;;;1.20;;
42616;SDS011;28250;52.320;0.360;2024-01-06T01:37:33;6.07;;;1.10;;
42616;SDS011;28250;52.320;0.360;2024-01-06T01:39:59;3.38;;;1.08;;
42616;SDS011;28250;52.320;0.360;2024-01-06T01:42:26;3.20;;;1.10;;
42616;SDS011;28250;52.320;0.360;2024-01-06T01:44:52;4.40;;;1.63;;
42616;SDS011;28250;52.320;0.360;2024-01-06T01:47:18;3.50;;;1.30;;
42616;SDS011;28250;52.320;0.360;2024-01-06T01:49:47;2.13;;;0.90;;
42616;SDS011;28250;52.320;0.360;2024-01-06T01:52:13;2.10;;;1.00;;
42616;SDS011;28250;52.320;0.360;2024-01-06T01:54:40;2.00;;;0.90;;
42616;SDS011;28250;52.320;0.360;2024-01-06T01:57:07;2.90;;;1.20;;
42616;SDS011;28250;52.320;0.360;2024-01-06T01:59:34;3.83;;;0.88;;
42616;SDS011;28250;52.320;0.360;2024-01-06T02:02:01;4.55;;;1.10;;
42616;SDS011;28250;52.320;0.360;2024-01-06T02:04:28;2.80;;;1.02;;
42616;SDS011;28250;52.320;0.360;2024-01-06T02:06:54;2.17;;;0.68;;
42616;SDS011;28250;52.320;0.360;2024-01-06T02:09:20;2.25;;;0.80;;
42616;SDS011;28250;52.320;0.360;2024-01-06T02:11:48;3.20;;;0.82;;
42616;SDS011;28250;52.320;0.360;2024-01-06T02:14:14;2.70;;;1.05;;
42616;SDS011;28250;52.320;0.360;2024-01-06T02:16:40;2.60;;;1.35;;
42616;SDS011;28250;52.320;0.360;2024-01-06T02:19:06;4.93;;;1.08;;
42616;SDS011;28250;52.320;0.360;2024-01-06T02:21:36;3.05;;;0.93;;
42616;SDS011;28250;52.320;0.360;2024-01-06T02:24:09;5.20;;;0.88;;
42616;SDS011;28250;52.320;0.360;2024-01-06T02:26:35;2.63;;;0.63;;
42616;SDS011;28250;52.320;0.360;2024-01-06T02:29:01;3.90;;;0.80;;
42616;SDS011;28250;52.320;0.360;2024-01-06T02:31:28;5.53;;;0.90;;
42616;SDS011;28250;52.320;0.360;2024-01-06T02:33:54;1.90;;;1.00;;
42616;SDS011;28250;52.320;0.360;2024-01-06T02:36:20;1.70;;;0.80;;
42616;SDS011;28250;52.320;0.360;2024-01-06T02:38:46;2.58;;;0.80;;
42616;SDS011;28250;52.320;0.360;2024-01-06T02:41:12;2.30;;;0.60;;
42616;SDS011;28250;52.320;0.360;2024-01-06T02:43:38;2.95;;;0.70;;
42616;SDS011;28250;52.320;0.360;2024-01-06T02:46:04;0.98;;;0.57;;
42616;SDS011;28250;52.320;0.360;2024-01-06T02:48:32;4.80;;;1.80;;
42616;SDS011;28250;52.320;0.360;2024-01-06T02:50:58;4.93;;;0.77;;
42616;SDS011;28250;52.320;0.360;2024-01-06T02:53:24;3.45;;;0.70;;
42616;SDS011;28250;52.320;0.360;2024-01-06T02:55:50;2.10;;;0.60;;
42616;SDS011;28250;52.320;0.360;2024-01-06T02:58:16;3.47;;;0.65;;
42616;SDS011;28250;52.320;0.360;2024-01-06T03:00:42;2.17;;;0.50;;
42616;SDS011;28250;52.320;0.360;2024-01-06T03:03:09;1.55;;;0.57;;
42616;SDS011;28250;52.320;0.360;2024-01-06T03:05:35;3.85;;;0.52;;
42616;SDS011;28250;52.320;0.360;2024-01-06T03:08:02;3.08;;;0.52;;
42616;SDS011;28250;52.320;0.360;2024-01-06T03:10:29;4.75;;;0.60;;
42616;SDS011;28250;52.320;0.360;2024-01-06T03:12:55;3.92;;;0.88;;
42616;SDS011;28250;52.320;0.360;2024-01-06T03:15:22;0.38;;;0.38;;
42616;SDS011;28250;52.320;0.360;2024-01-06T03:17:48;1.42;;;0.63;;
42616;SDS011;28250;52.320;0.360;2024-01-06T03:20:15;1.27;;;0.60;;
42616;SDS011;28250;52.320;0.360;2024-01-06T03:22:41;2.45;;;0.40;;
42616;SDS011;28250;52.320;0.360;2024-01-06T03:25:08;1.60;;;0.93;;
42616;SDS011;28250;52.320;0.360;2024-01-06T03:27:34;2.28;;;0.35;;
42616;SDS011;28250;52.320;0.360;2024-01-06T03:30:01;2.75;;;0.50;;
42616;SDS011;28250;52.320;0.360;2024-01-06T03:32:29;0.70;;;0.40;;
42616;SDS011;28250;52.320;0.360;2024-01-06T03:34:55;1.27;;;0.55;;
42616;SDS011;28250;52.320;0.360;2024-01-06T03:37:22;1.58;;;0.40;;
42616;SDS011;28250;52.320;0.360;2024-01-06T03:39:50;0.82;;;0.50;;
42616;SDS011;28250;52.320;0.360;2024-01-06T03:42:18;1.60;;;0.45;;
42616;SDS011;28250;52.320;0.360;2024-01-06T03:44:44;1.88;;;0.55;;
42616;SDS011;28250;52.320;0.360;2024-01-06T03:47:10;2.70;;;0.55;;
42616;SDS011;28250;52.320;0.360;2024-01-06T03:49:37;2.00;;;0.60;;
42616;SDS011;28250;52.320;0.360;2024-01-06T03:52:03;2.17;;;0.40;;
42616;SDS011;28250;52.320;0.360;2024-01-06T03:54:31;0.50;;;0.40;;
42616;SDS011;28250;52.320;0.360;2024-01-06T03:56:57;1.05;;;0.50;;
42616;SDS011;28250;52.320;0.360;2024-01-06T03:59:23;2.80;;;0.40;;
42616;SDS011;28250;52.320;0.360;2024-01-06T04:01:49;2.92;;;0.40;;
42616;SDS011;28250;52.320;0.360;2024-01-06T04:04:15;1.48;;;0.50;;
42616;SDS011;28250;52.320;0.360;2024-01-06T04:06:42;1.50;;;0.55;;
42616;SDS011;28250;52.320;0.360;2024-01-06T04:09:08;2.22;;;0.70;;
42616;SDS011;28250;52.320;0.360;2024-01-06T04:11:34;4.93;;;0.60;;
42616;SDS011;28250;52.320;0.360;2024-01-06T04:14:01;4.97;;;0.80;;
42616;SDS011;28250;52.320;0.360;2024-01-06T04:16:27;4.35;;;0.60;;
42616;SDS011;28250;52.320;0.360;2024-01-06T04:18:53;1.83;;;0.55;;
42616;SDS011;28250;52.320;0.360;2024-01-06T04:21:19;1.33;;;0.70;;
42616;SDS011;28250;52.320;0.360;2024-01-06T04:23:45;2.45;;;1.08;;
42616;SDS011;28250;52.320;0.360;2024-01-06T04:26:12;1.48;;;0.50;;
42616;SDS011;28250;52.320;0.360;2024-01-06T04:28:41;2.97;;;0.60;;
42616;SDS011;28250;52.320;0.360;2024-01-06T04:31:07;1.15;;;0.45;;
42616;SDS011;28250;52.320;0.360;2024-01-06T04:33:33;2.08;;;0.50;;
42616;SDS011;28250;52.320;0.360;2024-01-06T04:36:01;3.45;;;0.60;;
42616;SDS011;28250;52.320;0.360;2024-01-06T04:38:28;2.70;;;0.98;;
42616;SDS011;28250;52.320;0.360;2024-01-06T04:40:54;3.80;;;0.60;;
42616;SDS011;28250;52.320;0.360;2024-01-06T04:43:20;1.13;;;0.63;;
42616;SDS011;28250;52.320;0.360;2024-01-06T04:45:46;2.15;;;0.52;;
42616;SDS011;28250;52.320;0.360;2024-01-06T04:48:12;2.53;;;0.60;;
42616;SDS011;28250;52.320;0.360;2024-01-06T04:50:38;3.22;;;0.88;;
42616;SDS011;28250;52.320;0.360;2024-01-06T04:53:05;0.88;;;0.60;;
42616;SDS011;28250;52.320;0.360;2024-01-06T04:55:31;1.83;;;0.70;;
42616;SDS011;28250;52.320;0.360;2024-01-06T04:57:57;3.63;;;0.80;;
42616;SDS011;28250;52.320;0.360;2024-01-06T05:00:23;6.32;;;1.85;;
42616;SDS011;28250;52.320;0.360;2024-01-06T05:02:50;4.32;;;1.17;;
42616;SDS011;28250;52.320;0.360;2024-01-06T05:05:17;2.58;;;1.58;;
42616;SDS011;28250;52.320;0.360;2024-01-06T05:07:43;2.83;;;1.35;;
42616;SDS011;28250;52.320;0.360;2024-01-06T05:10:09;5.60;;;1.60;;
42616;SDS011;28250;52.320;0.360;2024-01-06T05:12:35;5.30;;;1.60;;
42616;SDS011;28250;52.320;0.360;2024-01-06T05:15:02;1.77;;;1.20;;
42616;SDS011;28250;52.320;0.360;2024-01-06T05:17:30;4.05;;;1.23;;
42616;SDS011;28250;52.320;0.360;2024-01-06T05:19:56;3.70;;;1.48;;
42616;SDS011;28250;52.320;0.360;2024-01-06T05:22:23;3.77;;;1.30;;
42616;SDS011;28250;52.320;0.360;2024-01-06T05:24:50;1.88;;;1.13;;
42616;SDS011;28250;52.320;0.360;2024-01-06T05:27:19;5.82;;;1.85;;
42616;SDS011;28250;52.320;0.360;2024-01-06T05:29:45;3.97;;;1.73;;
42616;SDS011;28250;52.320;0.360;2024-01-06T05:32:12;3.63;;;1.67;;
42616;SDS011;28250;52.320;0.360;2024-01-06T05:34:38;4.70;;;1.70;;
42616;SDS011;28250;52.320;0.360;2024-01-06T05:37:04;5.05;;;1.88;;
42616;SDS011;28250;52.320;0.360;2024-01-06T05:39:30;4.70;;;2.15;;
42616;SDS011;28250;52.320;0.360;2024-01-06T05:41:56;3.05;;;1.85;;
42616;SDS011;28250;52.320;0.360;2024-01-06T05:44:22;5.28;;;1.90;;
42616;SDS011;28250;52.320;0.360;2024-01-06T05:46:48;5.95;;;1.80;;
42616;SDS011;28250;52.320;0.360;2024-01-06T05:49:16;5.95;;;2.30;;
42616;SDS011;28250;52.320;0.360;2024-01-06T05:51:45;4.57;;;1.70;;
42616;SDS011;28250;52.320;0.360;2024-01-06T05:54:11;4.60;;;1.48;;
42616;SDS011;28250;52.320;0.360;2024-01-06T05:56:38;3.30;;;1.70;;
42616;SDS011;28250;52.320;0.360;2024-01-06T05:59:04;4.28;;;1.85;;
42616;SDS011;28250;52.320;0.360;2024-01-06T06:01:30;6.95;;;2.05;;
42616;SDS011;28250;52.320;0.360;2024-01-06T06:03:56;3.20;;;2.03;;
42616;SDS011;28250;52.320;0.360;2024-01-06T06:06:22;5.43;;;1.73;;
42616;SDS011;28250;52.320;0.360;2024-01-06T06:08:48;4.68;;;1.60;;
42616;SDS011;28250;52.320;0.360;2024-01-06T06:11:14;7.38;;;2.22;;
42616;SDS011;28250;52.320;0.360;2024-01-06T06:13:41;3.70;;;1.85;;
42616;SDS011;28250;52.320;0.360;2024-01-06T06:16:11;6.75;;;2.20;;
42616;SDS011;28250;52.320;0.360;2024-01-06T06:18:38;5.13;;;2.00;;
42616;SDS011;28250;52.320;0.360;2024-01-06T06:21:05;6.25;;;2.10;;
42616;SDS011;28250;52.320;0.360;2024-01-06T06:23:33;4.28;;;1.92;;
42616;SDS011;28250;52.320;0.360;2024-01-06T06:26:03;6.03;;;2.25;;
42616;SDS011;28250;52.320;0.360;2024-01-06T06:28:33;3.63;;;2.10;;
42616;SDS011;28250;52.320;0.360;2024-01-06T06:31:01;4.53;;;2.20;;
42616;SDS011;28250;52.320;0.360;2024-01-06T06:33:27;6.63;;;2.70;;
42616;SDS011;28250;52.320;0.360;2024-01-06T06:35:54;13.20;;;2.80;;
42616;SDS011;28250;52.320;0.360;2024-01-06T06:38:20;7.88;;;2.72;;
42616;SDS011;28250;52.320;0.360;2024-01-06T06:40:46;6.38;;;2.90;;
42616;SDS011;28250;52.320;0.360;2024-01-06T06:43:13;4.38;;;2.47;;
42616;SDS011;28250;52.320;0.360;2024-01-06T06:45:39;7.18;;;2.88;;
42616;SDS011;28250;52.320;0.360;2024-01-06T06:48:05;11.00;;;2.95;;
42616;SDS011;28250;52.320;0.360;2024-01-06T06:50:32;9.02;;;2.78;;
42616;SDS011;28250;52.320;0.360;2024-01-06T06:52:58;9.25;;;3.13;;
42616;SDS011;28250;52.320;0.360;2024-01-06T06:55:26;9.02;;;2.85;;
42616;SDS011;28250;52.320;0.360;2024-01-06T06:57:52;7.05;;;2.70;;
42616;SDS011;28250;52.320;0.360;2024-01-06T07:00:19;7.70;;;2.67;;
42616;SDS011;28250;52.320;0.360;2024-01-06T07:02:45;8.02;;;2.83;;
42616;SDS011;28250;52.320;0.360;2024-01-06T07:05:12;9.13;;;3.10;;
42616;SDS011;28250;52.320;0.360;2024-01-06T07:07:38;8.52;;;2.95;;
42616;SDS011;28250;52.320;0.360;2024-01-06T07:10:04;8.98;;;2.97;;
42616;SDS011;28250;52.320;0.360;2024-01-06T07:14:57;6.18;;;2.95;;
42616;SDS011;28250;52.320;0.360;2024-01-06T07:17:27;7.85;;;2.88;;
42616;SDS011;28250;52.320;0.360;2024-01-06T07:19:53;6.63;;;2.45;;
42616;SDS011;28250;52.320;0.360;2024-01-06T07:22:19;4.88;;;2.70;;
42616;SDS011;28250;52.320;0.360;2024-01-06T07:24:46;8.38;;;3.38;;
42616;SDS011;28250;52.320;0.360;2024-01-06T07:27:12;5.70;;;2.65;;
42616;SDS011;28250;52.320;0.360;2024-01-06T07:29:38;9.38;;;3.40;;
42616;SDS011;28250;52.320;0.360;2024-01-06T07:32:04;11.68;;;3.65;;
42616;SDS011;28250;52.320;0.360;2024-01-06T07:34:33;5.55;;;2.90;;
42616;SDS011;28250;52.320;0.360;2024-01-06T07:37:00;8.25;;;3.10;;
42616;SDS011;28250;52.320;0.360;2024-01-06T07:39:26;8.73;;;3.50;;
42616;SDS011;28250;52.320;0.360;2024-01-06T07:41:52;6.93;;;3.42;;
42616;SDS011;28250;52.320;0.360;2024-01-06T07:44:19;6.35;;;3.20;;
42616;SDS011;28250;52.320;0.360;2024-01-06T07:46:50;9.52;;;3.20;;
42616;SDS011;28250;52.320;0.360;2024-01-06T07:49:17;8.57;;;3.33;;
42616;SDS011;28250;52.320;0.360;2024-01-06T07:51:43;8.57;;;3.00;;
42616;SDS011;28250;52.320;0.360;2024-01-06T07:54:09;8.13;;;2.75;;
42616;SDS011;28250;52.320;0.360;2024-01-06T07:59:03;8.30;;;3.08;;
42616;SDS011;28250;52.320;0.360;2024-01-06T08:01:30;7.20;;;2.60;;
42616;SDS011;28250;52.320;0.360;2024-01-06T08:03:57;8.77;;;3.30;;
42616;SDS011;28250;52.320;0.360;2024-01-06T08:08:50;5.78;;;3.10;;
42616;SDS011;28250;52.320;0.360;2024-01-06T08:11:16;4.97;;;3.08;;
42616;SDS011;28250;52.320;0.360;2024-01-06T08:13:42;9.48;;;2.85;;
42616;SDS011;28250;52.320;0.360;2024-01-06T08:16:09;10.00;;;2.88;;
42616;SDS011;28250;52.320;0.360;2024-01-06T08:18:35;4.68;;;2.78;;
42616;SDS011;28250;52.320;0.360;2024-01-06T08:21:01;6.53;;;2.83;;
42616;SDS011;28250;52.320;0.360;2024-01-06T08:23:27;6.18;;;2.90;;
42616;SDS011;28250;52.320;0.360;2024-01-06T08:25:53;7.57;;;2.40;;
42616;SDS011;28250;52.320;0.360;2024-01-06T08:28:19;8.13;;;2.92;;
42616;SDS011;28250;52.320;0.360;2024-01-06T08:30:48;8.32;;;2.90;;
42616;SDS011;28250;52.320;0.360;2024-01-06T08:33:15;6.22;;;2.38;;
42616;SDS011;28250;52.320;0.360;2024-01-06T08:35:43;6.28;;;2.83;;
42616;SDS011;28250;52.320;0.360;2024-01-06T08:38:09;8.10;;;2.20;;
42616;SDS011;28250;52.320;0.360;2024-01-06T08:40:36;7.78;;;2.08;;
42616;SDS011;28250;52.320;0.360;2024-01-06T08:43:02;3.88;;;2.20;;
42616;SDS011;28250;52.320;0.360;2024-01-06T08:45:29;4.85;;;2.50;;
42616;SDS011;28250;52.320;0.360;2024-01-06T08:47:55;11.90;;;2.30;;
42616;SDS011;28250;52.320;0.360;2024-01-06T08:50:22;5.20;;;1.73;;
42616;SDS011;28250;52.320;0.360;2024-01-06T08:52:48;6.45;;;1.63;;
42616;SDS011;28250;52.320;0.360;2024-01-06T08:55:14;5.30;;;2.13;;
42616;SDS011;28250;52.320;0.360;2024-01-06T08:57:41;3.25;;;1.80;;
42616;SDS011;28250;52.320;0.360;2024-01-06T09:00:08;4.47;;;1.80;;
42616;SDS011;28250;52.320;0.360;2024-01-06T09:02:36;3.45;;;1.27;;
42616;SDS011;28250;52.320;0.360;2024-01-06T09:05:02;6.40;;;1.40;;
42616;SDS011;28250;52.320;0.360;2024-01-06T09:07:29;3.97;;;1.20;;
42616;SDS011;28250;52.320;0.360;2024-01-06T09:09:55;5.22;;;2.35;;
42616;SDS011;28250;52.320;0.360;2024-01-06T09:12:21;4.10;;;1.27;;
42616;SDS011;28250;52.320;0.360;2024-01-06T09:14:47;4.38;;;1.40;;
42616;SDS011;28250;52.320;0.360;2024-01-06T09:17:13;2.00;;;0.95;;
42616;SDS011;28250;52.320;0.360;2024-01-06T09:19:39;4.90;;;1.40;;
42616;SDS011;28250;52.320;0.360;2024-01-06T09:22:05;5.88;;;1.13;;
42616;SDS011;28250;52.320;0.360;2024-01-06T09:24:31;3.80;;;1.13;;
42616;SDS011;28250;52.320;0.360;2024-01-06T09:26:58;2.20;;;1.13;;
42616;SDS011;28250;52.320;0.360;2024-01-06T09:29:24;4.10;;;1.15;;
42616;SDS011;28250;52.320;0.360;2024-01-06T09:31:50;3.88;;;1.08;;
42616;SDS011;28250;52.320;0.360;2024-01-06T09:34:17;4.70;;;1.65;;
42616;SDS011;28250;52.320;0.360;2024-01-06T09:36:43;6.63;;;1.45;;
42616;SDS011;28250;52.320;0.360;2024-01-06T09:39:09;7.25;;;2.38;;
42616;SDS011;28250;52.320;0.360;2024-01-06T09:41:35;3.70;;;2.40;;
42616;SDS011;28250;52.320;0.360;2024-01-06T09:44:01;12.57;;;3.22;;
42616;SDS011;28250;52.320;0.360;2024-01-06T09:46:28;8.50;;;2.78;;
42616;SDS011;28250;52.320;0.360;2024-01-06T09:48:57;9.80;;;2.92;;
42616;SDS011;28250;52.320;0.360;2024-01-06T09:51:24;7.23;;;2.60;;
42616;SDS011;28250;52.320;0.360;2024-01-06T09:56:29;13.50;;;3.53;;
42616;SDS011;28250;52.320;0.360;2024-01-06T09:58:55;8.20;;;3.63;;
42616;SDS011;28250;52.320;0.360;2024-01-06T10:01:22;6.33;;;3.37;;
42616;SDS011;28250;52.320;0.360;2024-01-06T10:03:48;9.35;;;3.20;;
42616;SDS011;28250;52.320;0.360;2024-01-06T10:06:14;7.78;;;3.08;;
42616;SDS011;28250;52.320;0.360;2024-01-06T10:08:47;7.85;;;3.67;;
42616;SDS011;28250;52.320;0.360;2024-01-06T10:11:16;8.65;;;3.70;;
42616;SDS011;28250;52.320;0.360;2024-01-06T10:13:43;8.73;;;4.03;;
42616;SDS011;28250;52.320;0.360;2024-01-06T10:16:09;12.50;;;3.72;;
42616;SDS011;28250;52.320;0.360;2024-01-06T10:18:35;9.50;;;3.30;;
42616;SDS011;28250;52.320;0.360;2024-01-06T10:21:05;11.98;;;3.40;;
42616;SDS011;28250;52.320;0.360;2024-01-06T10:23:32;11.50;;;3.88;;
42616;SDS011;28250;52.320;0.360;2024-01-06T10:25:59;8.98;;;3.53;;
42616;SDS011;28250;52.320;0.360;2024-01-06T10:28:25;7.72;;;3.70;;
42616;SDS011;28250;52.320;0.360;2024-01-06T10:30:52;8.05;;;3.40;;
42616;SDS011;28250;52.320;0.360;2024-01-06T10:35:46;10.65;;;3.67;;
42616;SDS011;28250;52.320;0.360;2024-01-06T10:38:13;11.17;;;4.30;;
42616;SDS011;28250;52.320;0.360;2024-01-06T10:43:44;11.07;;;3.38;;
42616;SDS011;28250;52.320;0.360;2024-01-06T10:46:12;10.57;;;3.88;;
42616;SDS011;28250;52.320;0.360;2024-01-06T10:48:41;8.93;;;3.40;;
42616;SDS011;28250;52.320;0.360;2024-01-06T10:51:11;8.40;;;3.40;;
42616;SDS011;28250;52.320;0.360;2024-01-06T10:53:40;12.30;;;3.25;;
42616;SDS011;28250;52.320;0.360;2024-01-06T10:56:07;13.57;;;3.67;;
42616;SDS011;28250;52.320;0.360;2024-01-06T10:58:36;9.98;;;3.55;;
42616;SDS011;28250;52.320;0.360;2024-01-06T11:01:11;6.10;;;3.20;;
42616;SDS011;28250;52.320;0.360;2024-01-06T11:03:37;5.15;;;3.10;;
42616;SDS011;28250;52.320;0.360;2024-01-06T11:06:05;7.43;;;2.67;;
42616;SDS011;28250;52.320;0.360;2024-01-06T11:08:40;7.43;;;2.28;;
42616;SDS011;28250;52.320;0.360;2024-01-06T11:11:18;12.15;;;2.83;;
42616;SDS011;28250;52.320;0.360;2024-01-06T11:13:46;6.30;;;3.10;;
42616;SDS011;28250;52.320;0.360;2024-01-06T11:20:01;10.60;;;3.17;;
42616;SDS011;28250;52.320;0.360;2024-01-06T11:22:20;7.80;;;2.92;;
42616;SDS011;28250;52.320;0.360;2024-01-06T11:24:49;5.28;;;2.25;;
42616;SDS011;28250;52.320;0.360;2024-01-06T11:27:27;4.88;;;2.58;;
42616;SDS011;28250;52.320;0.360;2024-01-06T11:29:57;6.63;;;2.25;;
42616;SDS011;28250;52.320;0.360;2024-01-06T11:32:27;7.05;;;2.58;;
42616;SDS011;28250;52.320;0.360;2024-01-06T11:35:16;4.75;;;2.38;;
42616;SDS011;28250;52.320;0.360;2024-01-06T11:43:08;7.85;;;2.22;;
42616;SDS011;28250;52.320;0.360;2024-01-06T11:45:41;4.88;;;2.38;;
42616;SDS011;28250;52.320;0.360;2024-01-06T11:48:09;6.88;;;2.60;;
42616;SDS011;28250;52.320;0.360;2024-01-06T11:50:38;4.18;;;2.03;;
42616;SDS011;28250;52.320;0.360;2024-01-06T11:53:06;4.50;;;2.45;;
42616;SDS011;28250;52.320;0.360;2024-01-06T11:55:35;4.72;;;2.70;;
42616;SDS011;28250;52.320;0.360;2024-01-06T11:58:04;8.75;;;2.58;;
42616;SDS011;28250;52.320;0.360;2024-01-06T12:00:31;8.32;;;2.63;;
42616;SDS011;28250;52.320;0.360;2024-01-06T12:02:59;9.40;;;2.90;;
42616;SDS011;28250;52.320;0.360;2024-01-06T12:05:26;6.18;;;2.70;;
42616;SDS011;28250;52.320;0.360;2024-01-06T12:07:53;9.63;;;1.90;;
42616;SDS011;28250;52.320;0.360;2024-01-06T12:10:21;5.40;;;1.98;;
42616;SDS011;28250;52.320;0.360;2024-01-06T12:15:24;5.82;;;2.42;;
42616;SDS011;28250;52.320;0.360;2024-01-06T12:17:54;5.50;;;1.38;;
42616;SDS011;28250;52.320;0.360;2024-01-06T12:20:21;3.47;;;1.73;;
42616;SDS011;28250;52.320;0.360;2024-01-06T12:22:52;3.15;;;1.73;;
42616;SDS011;28250;52.320;0.360;2024-01-06T12:25:20;6.68;;;1.65;;
42616;SDS011;28250;52.320;0.360;2024-01-06T12:27:47;7.63;;;1.83;;
42616;SDS011;28250;52.320;0.360;2024-01-06T12:30:14;5.95;;;1.42;;
42616;SDS011;28250;52.320;0.360;2024-01-06T12:32:47;3.65;;;1.60;;
42616;SDS011;28250;52.320;0.360;2024-01-06T12:35:15;6.97;;;1.70;;
42616;SDS011;28250;52.320;0.360;2024-01-06T12:37:42;4.90;;;3.05;;
42616;SDS011;28250;52.320;0.360;2024-01-06T12:40:09;4.85;;;1.30;;
42616;SDS011;28250;52.320;0.360;2024-01-06T12:42:36;2.15;;;1.75;;
42616;SDS011;28250;52.320;0.360;2024-01-06T12:45:02;2.75;;;1.52;;
42616;SDS011;28250;52.320;0.360;2024-01-06T12:47:30;4.43;;;1.95;;
42616;SDS011;28250;52.320;0.360;2024-01-06T12:49:56;5.53;;;1.58;;
42616;SDS011;28250;52.320;0.360;2024-01-06T12:52:22;3.47;;;1.50;;
42616;SDS011;28250;52.320;0.360;2024-01-06T12:54:49;6.80;;;1.83;;
42616;SDS011;28250;52.320;0.360;2024-01-06T12:57:15;3.97;;;1.65;;
42616;SDS011;28250;52.320;0.360;2024-01-06T12:59:41;6.22;;;3.67;;
42616;SDS011;28250;52.320;0.360;2024-01-06T13:02:08;4.93;;;2.10;;
42616;SDS011;28250;52.320;0.360;2024-01-06T13:04:34;7.25;;;2.00;;
42616;SDS011;28250;52.320;0.360;2024-01-06T13:07:01;3.08;;;1.77;;
42616;SDS011;28250;52.320;0.360;2024-01-06T13:09:27;5.45;;;1.77;;
42616;SDS011;28250;52.320;0.360;2024-01-06T13:11:54;5.88;;;1.90;;
42616;SDS011;28250;52.320;0.360;2024-01-06T13:14:26;3.47;;;2.00;;
42616;SDS011;28250;52.320;0.360;2024-01-06T13:16:54;5.20;;;2.53;;
42616;SDS011;28250;52.320;0.360;2024-01-06T13:19:20;5.25;;;1.88;;
42616;SDS011;28250;52.320;0.360;2024-01-06T13:21:46;4.82;;;2.45;;
42616;SDS011;28250;52.320;0.360;2024-01-06T13:24:12;2.97;;;1.52;;
42616;SDS011;28250;52.320;0.360;2024-01-06T13:26:38;6.75;;;1.50;;
42616;SDS011;28250;52.320;0.360;2024-01-06T13:29:04;5.10;;;1.58;;
42616;SDS011;28250;52.320;0.360;2024-01-06T13:31:31;2.47;;;1.60;;
42616;SDS011;28250;52.320;0.360;2024-01-06T13:33:58;1.60;;;1.33;;
42616;SDS011;28250;52.320;0.360;2024-01-06T13:36:24;2.60;;;1.10;;
42616;SDS011;28250;52.320;0.360;2024-01-06T13:38:50;3.05;;;1.20;;
42616;SDS011;28250;52.320;0.360;2024-01-06T13:41:16;3.00;;;1.27;;
42616;SDS011;28250;52.320;0.360;2024-01-06T13:43:42;3.03;;;0.95;;
42616;SDS011;28250;52.320;0.360;2024-01-06T13:46:10;2.23;;;0.70;;
42616;SDS011;28250;52.320;0.360;2024-01-06T13:48:39;3.85;;;0.90;;
42616;SDS011;28250;52.320;0.360;2024-01-06T13:51:06;3.35;;;0.52;;
42616;SDS011;28250;52.320;0.360;2024-01-06T13:53:32;2.38;;;0.65;;
42616;SDS011;28250;52.320;0.360;2024-01-06T13:55:59;2.53;;;0.73;;
42616;SDS011;28250;52.320;0.360;2024-01-06T13:58:25;1.38;;;0.57;;
42616;SDS011;28250;52.320;0.360;2024-01-06T14:00:51;1.25;;;0.80;;
42616;SDS011;28250;52.320;0.360;2024-01-06T14:03:17;2.00;;;1.10;;
42616;SDS011;28250;52.320;0.360;2024-01-06T14:05:43;1.30;;;0.70;;
42616;SDS011;28250;52.320;0.360;2024-01-06T14:08:09;1.92;;;0.90;;
42616;SDS011;28250;52.320;0.360;2024-01-06T14:10:35;2.45;;;1.02;;
42616;SDS011;28250;52.320;0.360;2024-01-06T14:15:29;2.40;;;1.17;;
42616;SDS011;28250;52.320;0.360;2024-01-06T14:17:56;5.28;;;0.93;;
42616;SDS011;28250;52.320;0.360;2024-01-06T14:20:22;4.47;;;1.50;;
42616;SDS011;28250;52.320;0.360;2024-01-06T14:22:48;2.90;;;1.10;;
42616;SDS011;28250;52.320;0.360;2024-01-06T14:25:15;4.05;;;2.08;;
42616;SDS011;28250;52.320;0.360;2024-01-06T14:27:44;2.10;;;1.08;;
42616;SDS011;28250;52.320;0.360;2024-01-06T14:30:10;4.03;;;1.05;;
42616;SDS011;28250;52.320;0.360;2024-01-06T14:32:37;2.63;;;0.77;;
42616;SDS011;28250;52.320;0.360;2024-01-06T14:35:07;1.60;;;0.63;;
42616;SDS011;28250;52.320;0.360;2024-01-06T14:37:37;2.05;;;0.60;;
42616;SDS011;28250;52.320;0.360;2024-01-06T14:40:03;1.52;;;0.63;;
42616;SDS011;28250;52.320;0.360;2024-01-06T14:42:32;1.50;;;0.70;;
42616;SDS011;28250;52.320;0.360;2024-01-06T14:44:58;4.47;;;0.82;;
42616;SDS011;28250;52.320;0.360;2024-01-06T14:47:25;2.50;;;0.93;;
42616;SDS011;28250;52.320;0.360;2024-01-06T14:49:51;2.95;;;0.85;;
42616;SDS011;28250;52.320;0.360;2024-01-06T14:52:17;1.13;;;0.68;;
42616;SDS011;28250;52.320;0.360;2024-01-06T14:54:44;2.40;;;0.77;;
42616;SDS011;28250;52.320;0.360;2024-01-06T14:57:10;0.98;;;0.60;;
42616;SDS011;28250;52.320;0.360;2024-01-06T14:59:36;1.65;;;1.17;;
42616;SDS011;28250;52.320;0.360;2024-01-06T15:02:02;3.47;;;1.92;;
42616;SDS011;28250;52.320;0.360;2024-01-06T15:04:28;1.95;;;0.70;;
42616;SDS011;28250;52.320;0.360;2024-01-06T15:06:55;1.27;;;0.75;;
42616;SDS011;28250;52.320;0.360;2024-01-06T15:09:21;1.88;;;0.75;;
42616;SDS011;28250;52.320;0.360;2024-01-06T15:11:49;0.70;;;0.60;;
42616;SDS011;28250;52.320;0.360;2024-01-06T15:14:15;2.08;;;0.93;;
42616;SDS011;28250;52.320;0.360;2024-01-06T15:16:41;2.33;;;0.80;;